createdAt,value
2018-07-27T00:00:59.948Z,64.86
2018-07-27T00:01:59.961Z,65.24
2018-07-27T00:02:59.956Z,64.86
2018-07-27T00:03:59.705Z,65.34
2018-07-27T00:04:59.725Z,65.05
2018-07-27T00:05:59.710Z,65.14
2018-07-27T00:06:59.732Z,64.76
2018-07-27T00:07:59.973Z,64.86
2018-07-27T00:08:59.990Z,64.86
2018-07-27T00:09:59.724Z,65.05
2018-07-27T00:10:59.986Z,64.86
2018-07-27T00:11:59.732Z,64.66
2018-07-27T00:12:59.989Z,65.14
2018-07-27T00:13:59.761Z,65.05
2018-07-27T00:14:59.991Z,65.34
2018-07-27T00:15:59.760Z,65.24
2018-07-27T00:16:59.743Z,65.14
2018-07-27T00:18:00.026Z,65.82
2018-07-27T00:19:00.004Z,65.72
2018-07-27T00:20:00.024Z,65.34
2018-07-27T00:21:00.009Z,65.3
2018-07-27T00:21:59.752Z,65.43
2018-07-27T00:23:00.034Z,65.43
2018-07-27T00:24:00.019Z,65.59
2018-07-27T00:25:00.023Z,65.5
2018-07-27T00:25:59.768Z,65.98
2018-07-27T00:26:59.768Z,65.88
2018-07-27T00:28:00.029Z,66.08
2018-07-27T00:29:00.046Z,66.3
2018-07-27T00:29:59.828Z,66.08
2018-07-27T00:31:00.037Z,65.88
2018-07-27T00:32:00.053Z,66.08
2018-07-27T00:32:59.786Z,65.98
2018-07-27T00:34:00.179Z,65.88
2018-07-27T00:35:00.052Z,65.88
2018-07-27T00:35:59.795Z,65.78
2018-07-27T00:36:59.793Z,65.78
2018-07-27T00:37:59.800Z,66.08
2018-07-27T00:39:00.062Z,66.56
2018-07-27T00:40:00.065Z,66.75
2018-07-27T00:40:59.861Z,67.14
2018-07-27T00:41:59.830Z,66.85
2018-07-27T00:42:59.816Z,67.62
2018-07-27T00:44:00.076Z,67.71
2018-07-27T00:45:00.079Z,67.43
2018-07-27T00:46:00.084Z,67.71
2018-07-27T00:46:59.837Z,67.62
2018-07-27T00:47:59.833Z,67.91
2018-07-27T00:49:00.091Z,68.1
2018-07-27T00:49:59.834Z,68.01
2018-07-27T00:50:59.834Z,68.55
2018-07-27T00:52:00.094Z,68.55
2018-07-27T00:53:00.100Z,68.84
2018-07-27T00:54:00.103Z,68.16
2018-07-27T00:55:00.100Z,68.84
2018-07-27T00:56:00.125Z,68.35
2018-07-27T00:56:59.860Z,68.65
2018-07-27T00:57:59.856Z,69.03
2018-07-27T00:58:59.868Z,68.84
2018-07-27T00:59:59.865Z,69.03
2018-07-27T01:01:00.118Z,68.74
2018-07-27T01:02:00.123Z,68.93
2018-07-27T01:02:59.870Z,68.84
2018-07-27T01:03:59.870Z,69.03
2018-07-27T01:05:00.131Z,68.93
2018-07-27T01:06:00.140Z,69.13
2018-07-27T01:06:59.871Z,69.32
2018-07-27T01:07:59.894Z,69.51
2018-07-27T01:09:00.146Z,69.13
2018-07-27T01:09:59.882Z,69.23
2018-07-27T01:10:59.884Z,69.13
2018-07-27T01:12:00.145Z,69.71
2018-07-27T01:13:00.155Z,69.71
2018-07-27T01:13:59.894Z,69.61
2018-07-27T01:14:59.898Z,70.19
2018-07-27T01:15:59.903Z,69.51
2018-07-27T01:17:00.159Z,69.61
2018-07-27T01:17:59.905Z,69.8
2018-07-27T01:18:59.907Z,70
2018-07-27T01:19:59.907Z,70.19
2018-07-27T01:21:00.197Z,69.9
2018-07-27T01:22:00.218Z,70.57
2018-07-27T01:22:59.929Z,70.09
2018-07-27T01:23:59.928Z,70
2018-07-27T01:24:59.965Z,69.61
2018-07-27T01:26:00.183Z,70.38
2018-07-27T01:27:00.198Z,70.09
2018-07-27T01:28:00.201Z,70.19
2018-07-27T01:29:00.186Z,70.92
2018-07-27T01:30:00.197Z,70.73
2018-07-27T01:31:00.199Z,70.64
2018-07-27T01:32:00.197Z,70.57
2018-07-27T01:32:59.938Z,70.86
2018-07-27T01:34:00.221Z,70.38
2018-07-27T01:35:00.231Z,70.57
2018-07-27T01:36:00.219Z,70.38
2018-07-27T01:37:00.220Z,70.09
2018-07-27T01:38:00.224Z,70.09
2018-07-27T01:39:00.240Z,70
2018-07-27T01:40:00.219Z,70
2018-07-27T01:41:00.220Z,69.71
2018-07-27T01:41:59.961Z,70.38
2018-07-27T01:42:59.966Z,70.48
2018-07-27T01:43:59.963Z,70.57
2018-07-27T01:45:00.235Z,70.19
2018-07-27T01:46:00.228Z,70.38
2018-07-27T01:47:00.239Z,70.48
2018-07-27T01:48:00.267Z,70.67
2018-07-27T01:49:00.246Z,70.96
2018-07-27T01:50:00.241Z,71.15
2018-07-27T01:51:00.273Z,71.15
2018-07-27T01:52:00.004Z,71.83
2018-07-27T01:53:00.252Z,71.54
2018-07-27T01:54:00.275Z,72.02
2018-07-27T01:55:00.254Z,71.92
2018-07-27T01:56:00.000Z,72.31
2018-07-27T01:57:00.268Z,72.41
2018-07-27T01:58:00.274Z,72.12
2018-07-27T01:59:00.344Z,72.02
2018-07-27T02:00:00.275Z,72.02
2018-07-27T02:01:00.265Z,72.31
2018-07-27T02:02:00.007Z,73.27
2018-07-27T02:03:00.281Z,72.89
2018-07-27T02:04:00.270Z,73.27
2018-07-27T02:05:00.026Z,73.08
2018-07-27T02:06:00.176Z,72.99
2018-07-27T02:07:00.291Z,73.57
2018-07-27T02:08:00.293Z,73.37
2018-07-27T02:09:00.311Z,73.37
2018-07-27T02:10:00.290Z,73.85
2018-07-27T02:11:00.296Z,73.66
2018-07-27T02:12:00.326Z,74.14
2018-07-27T02:13:00.375Z,73.18
2018-07-27T02:14:00.292Z,73.37
2018-07-27T02:15:00.299Z,73.85
2018-07-27T02:16:00.314Z,74.24
2018-07-27T02:17:00.300Z,74.33
2018-07-27T02:18:00.326Z,74.62
2018-07-27T02:19:00.038Z,74.05
2018-07-27T02:20:00.312Z,74.14
2018-07-27T02:21:00.300Z,74.33
2018-07-27T02:22:00.054Z,74.33
2018-07-27T02:23:00.323Z,73.95
2018-07-27T02:24:00.060Z,74.33
2018-07-27T02:25:00.329Z,74.33
2018-07-27T02:26:00.362Z,74.68
2018-07-27T02:27:00.053Z,74.52
2018-07-27T02:28:00.338Z,73.95
2018-07-27T02:29:00.334Z,74.24
2018-07-27T02:30:00.343Z,73.18
2018-07-27T02:31:00.341Z,72.79
2018-07-27T02:32:00.360Z,73.14
2018-07-27T02:33:00.352Z,73.14
2018-07-27T02:34:00.075Z,73.72
2018-07-27T02:35:00.348Z,74.49
2018-07-27T02:36:00.346Z,74.97
2018-07-27T02:37:00.087Z,74.78
2018-07-27T02:38:00.376Z,75.26
2018-07-27T02:39:00.386Z,74.97
2018-07-27T02:40:00.515Z,75.36
2018-07-27T02:41:00.395Z,76.03
2018-07-27T02:42:00.366Z,75.16
2018-07-27T02:43:00.380Z,75.45
2018-07-27T02:44:00.367Z,75.26
2018-07-27T02:45:00.418Z,75.26
2018-07-27T02:46:00.097Z,74.97
2018-07-27T02:47:00.369Z,75.26
2018-07-27T02:48:00.375Z,75.16
2018-07-27T02:49:00.375Z,75.93
2018-07-27T02:50:00.364Z,76.23
2018-07-27T02:51:00.389Z,75.93
2018-07-27T02:52:00.364Z,76.32
2018-07-27T02:53:00.390Z,75.93
2018-07-27T02:54:00.405Z,75.93
2018-07-27T02:55:00.412Z,75.84
2018-07-27T02:56:00.396Z,75.93
2018-07-27T02:57:00.392Z,75.93
2018-07-27T02:58:00.417Z,75.84
2018-07-27T02:59:00.412Z,76.32
2018-07-27T03:00:00.386Z,76.13
2018-07-27T03:01:00.137Z,76.03
2018-07-27T03:02:00.405Z,76.61
2018-07-27T03:03:00.131Z,76.42
2018-07-27T03:04:00.405Z,76.71
2018-07-27T03:05:00.402Z,76.51
2018-07-27T03:06:00.410Z,76.51
2018-07-27T03:07:00.397Z,76.42
2018-07-27T03:08:00.404Z,76.42
2018-07-27T03:09:00.141Z,76.61
2018-07-27T03:10:00.411Z,77.09
2018-07-27T03:11:00.426Z,76.8
2018-07-27T03:12:00.148Z,77
2018-07-27T03:13:00.151Z,77.38
2018-07-27T03:14:00.422Z,76.86
2018-07-27T03:15:00.431Z,77.06
2018-07-27T03:16:00.422Z,77.09
2018-07-27T03:17:00.434Z,77.09
2018-07-27T03:18:00.422Z,76.42
2018-07-27T03:19:00.452Z,76.23
2018-07-27T03:20:00.438Z,75.65
2018-07-27T03:21:00.162Z,75.71
2018-07-27T03:22:00.440Z,75.99
2018-07-27T03:23:00.450Z,75.71
2018-07-27T03:24:00.437Z,76.28
2018-07-27T03:25:00.167Z,75.9
2018-07-27T03:26:00.452Z,75.65
2018-07-27T03:27:00.173Z,74.93
2018-07-27T03:28:00.176Z,75.03
2018-07-27T03:29:00.445Z,75.26
2018-07-27T03:30:00.185Z,75.13
2018-07-27T03:31:00.452Z,75.03
2018-07-27T03:32:00.449Z,74.97
2018-07-27T03:33:00.694Z,75.45
2018-07-27T03:34:00.468Z,75.99
2018-07-27T03:35:00.468Z,75.16
2018-07-27T03:36:00.473Z,74.93
2018-07-27T03:37:00.193Z,75.07
2018-07-27T03:38:00.468Z,75.23
2018-07-27T03:39:00.195Z,75.99
2018-07-27T03:40:00.465Z,76.38
2018-07-27T03:41:00.467Z,76.38
2018-07-27T03:42:00.534Z,76.28
2018-07-27T03:43:00.483Z,76.48
2018-07-27T03:44:00.212Z,76.09
2018-07-27T03:45:00.496Z,75.99
2018-07-27T03:46:00.506Z,75.99
2018-07-27T03:47:00.216Z,75.99
2018-07-27T03:48:00.219Z,76.28
2018-07-27T03:49:00.497Z,76.09
2018-07-27T03:50:00.484Z,75.99
2018-07-27T03:51:00.482Z,76.86
2018-07-27T03:52:00.508Z,76.67
2018-07-27T03:53:00.229Z,76.28
2018-07-27T03:54:00.241Z,76.18
2018-07-27T03:55:00.234Z,76.38
2018-07-27T03:56:00.243Z,76.48
2018-07-27T03:57:00.515Z,76.92
2018-07-27T03:58:00.272Z,76.92
2018-07-27T03:59:00.517Z,77.01
2018-07-27T04:00:00.253Z,76.92
2018-07-27T04:01:00.515Z,77.01
2018-07-27T04:02:00.519Z,77.88
2018-07-27T04:03:00.256Z,77.69
2018-07-27T04:04:00.552Z,77.69
2018-07-27T04:05:00.523Z,77.88
2018-07-27T04:06:00.257Z,77.59
2018-07-27T04:07:00.265Z,77.98
2018-07-27T04:08:00.534Z,78.36
2018-07-27T04:09:00.544Z,78.27
2018-07-27T04:10:00.525Z,77.69
2018-07-27T04:11:00.515Z,77.21
2018-07-27T04:12:00.279Z,77.21
2018-07-27T04:13:00.280Z,77.01
2018-07-27T04:14:00.268Z,76.96
2018-07-27T04:15:00.702Z,77.25
2018-07-27T04:16:00.277Z,76.38
2018-07-27T04:17:00.558Z,77.34
2018-07-27T04:18:00.302Z,76.76
2018-07-27T04:19:00.282Z,77.34
2018-07-27T04:20:00.292Z,77.06
2018-07-27T04:21:00.572Z,76.38
2018-07-27T04:22:00.303Z,76.57
2018-07-27T04:23:00.303Z,76.51
2018-07-27T04:24:00.580Z,76.13
2018-07-27T04:25:00.299Z,75.93
2018-07-27T04:26:00.559Z,75.07
2018-07-27T04:27:00.554Z,74.43
2018-07-27T04:28:00.594Z,74.33
2018-07-27T04:29:00.569Z,73.37
2018-07-27T04:30:00.585Z,73.18
2018-07-27T04:31:00.317Z,72.83
2018-07-27T04:32:00.308Z,72.73
2018-07-27T04:33:00.738Z,71.86
2018-07-27T04:34:00.322Z,72.48
2018-07-27T04:35:00.341Z,71.51
2018-07-27T04:36:00.592Z,71.42
2018-07-27T04:37:00.585Z,71.03
2018-07-27T04:38:00.331Z,70.94
2018-07-27T04:39:00.326Z,70.94
2018-07-27T04:40:00.617Z,70.78
2018-07-27T04:41:00.367Z,70.94
2018-07-27T04:42:00.363Z,70.87
2018-07-27T04:43:00.788Z,70.2
2018-07-27T04:44:00.598Z,70.58
2018-07-27T04:45:00.608Z,70.45
2018-07-27T04:46:00.623Z,70.29
2018-07-27T04:47:00.623Z,70.39
2018-07-27T04:48:00.397Z,69.71
2018-07-27T04:49:00.642Z,69.9
2018-07-27T04:50:00.655Z,69.23
2018-07-27T04:51:00.432Z,69.17
2018-07-27T04:52:00.643Z,69.07
2018-07-27T04:53:00.644Z,68.68
2018-07-27T04:54:00.670Z,68.59
2018-07-27T04:55:00.397Z,68.2
2018-07-27T04:56:00.653Z,67.56
2018-07-27T04:57:00.684Z,66.98
2018-07-27T04:58:00.412Z,66.88
2018-07-27T04:59:00.419Z,66.5
2018-07-27T05:00:00.668Z,66.4
2018-07-27T05:01:00.660Z,66.2
2018-07-27T05:02:00.678Z,66.14
2018-07-27T05:03:00.599Z,65.95
2018-07-27T05:04:00.686Z,64.98
2018-07-27T05:05:00.692Z,64.98
2018-07-27T05:06:00.453Z,64.82
2018-07-27T05:07:00.722Z,64.34
2018-07-27T05:08:00.705Z,64.04
2018-07-27T05:09:00.733Z,63.46
2018-07-27T05:10:00.472Z,63.11
2018-07-27T05:11:00.483Z,62.63
2018-07-27T05:12:00.738Z,62.34
2018-07-27T05:13:00.558Z,61.95
2018-07-27T05:14:00.739Z,61.95
2018-07-27T05:15:00.749Z,60.91
2018-07-27T05:16:00.754Z,60.52
2018-07-27T05:17:00.773Z,59.88
2018-07-27T05:18:00.526Z,59.49
2018-07-27T05:19:00.772Z,58.81
2018-07-27T05:20:00.800Z,58.45
2018-07-27T05:21:00.802Z,57.97
2018-07-27T05:22:00.795Z,57.68
2018-07-27T05:23:00.780Z,57.68
2018-07-27T05:24:00.785Z,57.48
2018-07-27T05:25:00.565Z,57.12
2018-07-27T05:26:00.847Z,56.54
2018-07-27T05:27:00.808Z,56.54
2018-07-27T05:28:00.809Z,56.64
2018-07-27T05:29:00.562Z,56.09
2018-07-27T05:30:00.609Z,55.41
2018-07-27T05:31:00.597Z,55.21
2018-07-27T05:32:00.842Z,55.11
2018-07-27T05:33:01.892Z,54.85
2018-07-27T05:34:00.629Z,55.14
2018-07-27T05:35:00.850Z,55.04
2018-07-27T05:36:00.860Z,53.78
2018-07-27T05:37:00.635Z,53.49
2018-07-27T05:38:00.888Z,53.61
2018-07-27T05:39:00.884Z,52.84
2018-07-27T05:40:00.892Z,52.84
2018-07-27T05:41:00.892Z,53.13
2018-07-27T05:42:00.647Z,52.84
2018-07-27T05:43:00.904Z,53.71
2018-07-27T05:44:00.910Z,53.52
2018-07-27T05:45:00.687Z,53.61
2018-07-27T05:46:00.926Z,54.27
2018-07-27T05:47:01.175Z,54.46
2018-07-27T05:48:00.701Z,54.36
2018-07-27T05:49:00.740Z,55.02
2018-07-27T05:50:00.952Z,54.56
2018-07-27T05:51:00.705Z,54.46
2018-07-27T05:52:00.975Z,55.04
2018-07-27T05:53:00.973Z,53.97
2018-07-27T05:54:00.982Z,53.59
2018-07-27T05:55:00.737Z,53.42
2018-07-27T05:56:01.049Z,53.06
2018-07-27T05:57:01.003Z,52.28
2018-07-27T05:58:01.014Z,51.6
2018-07-27T05:59:01.016Z,51.43
2018-07-27T06:00:00.804Z,51.04
2018-07-27T06:01:00.812Z,50.85
2018-07-27T06:02:01.036Z,51.14
2018-07-27T06:03:01.168Z,50.95
2018-07-27T06:04:01.050Z,50.95
2018-07-27T06:05:00.799Z,51.04
2018-07-27T06:06:01.063Z,50.65
2018-07-27T06:07:01.077Z,50.38
2018-07-27T06:08:01.078Z,49.32
2018-07-27T06:09:01.090Z,49.73
2018-07-27T06:10:01.093Z,49.15
2018-07-27T06:11:01.091Z,48.07
2018-07-27T06:12:00.855Z,48.39
2018-07-27T06:13:01.114Z,47.9
2018-07-27T06:14:01.113Z,48
2018-07-27T06:15:00.871Z,47.42
2018-07-27T06:16:01.129Z,47.73
2018-07-27T06:17:01.172Z,47.15
2018-07-27T06:18:01.386Z,46.69
2018-07-27T06:19:00.900Z,46.66
2018-07-27T06:20:00.919Z,45.9
2018-07-27T06:21:01.339Z,45.81
2018-07-27T06:22:01.189Z,45.73
2018-07-27T06:23:01.182Z,45.05
2018-07-27T06:24:01.523Z,45.05
2018-07-27T06:25:01.199Z,45.56
2018-07-27T06:26:00.963Z,44.97
2018-07-27T06:27:00.969Z,45.25
2018-07-27T06:28:01.220Z,44.85
2018-07-27T06:29:01.236Z,44.85
2018-07-27T06:30:01.464Z,44.78
2018-07-27T06:31:01.251Z,44.58
2018-07-27T06:32:01.263Z,44.87
2018-07-27T06:33:01.257Z,45.17
2018-07-27T06:34:01.022Z,44.12
2018-07-27T06:35:01.019Z,43.53
2018-07-27T06:36:01.282Z,42.68
2018-07-27T06:37:01.296Z,42.77
2018-07-27T06:38:01.307Z,42.68
2018-07-27T06:39:01.124Z,42.01
2018-07-27T06:40:01.059Z,42.01
2018-07-27T06:41:01.145Z,42.21
2018-07-27T06:42:01.345Z,42.58
2018-07-27T06:43:01.342Z,42.29
2018-07-27T06:44:01.098Z,42.29
2018-07-27T06:45:01.113Z,41.89
2018-07-27T06:46:01.371Z,41.89
2018-07-27T06:47:01.407Z,41.8
2018-07-27T06:48:01.392Z,41.52
2018-07-27T06:49:01.401Z,41.82
2018-07-27T06:50:01.433Z,42.11
2018-07-27T06:51:01.483Z,41.62
2018-07-27T06:52:01.429Z,41.03
2018-07-27T06:53:01.426Z,41.25
2018-07-27T06:54:01.179Z,41.05
2018-07-27T06:55:01.475Z,40.76
2018-07-27T06:56:01.449Z,40.68
2018-07-27T06:57:01.230Z,40.68
2018-07-27T06:58:01.212Z,40.37
2018-07-27T06:59:01.241Z,40.47
2018-07-27T07:00:01.233Z,41.17
2018-07-27T07:01:01.547Z,40.95
2018-07-27T07:02:01.257Z,41.25
2018-07-27T07:03:01.253Z,41.05
2018-07-27T07:04:01.267Z,41.15
2018-07-27T07:05:01.535Z,41.05
2018-07-27T07:06:01.364Z,41.15
2018-07-27T07:07:01.288Z,41.25
2018-07-27T07:08:01.563Z,40.66
2018-07-27T07:09:01.624Z,40
2018-07-27T07:10:01.573Z,39.72
2018-07-27T07:11:01.588Z,40.21
2018-07-27T07:12:01.602Z,39.04
2018-07-27T07:13:01.343Z,39.35
2018-07-27T07:14:01.362Z,38.76
2018-07-27T07:15:01.364Z,38.57
2018-07-27T07:16:01.370Z,38.86
2018-07-27T07:17:01.632Z,38.47
2018-07-27T07:18:01.404Z,39.15
2018-07-27T07:19:01.408Z,40.21
2018-07-27T07:20:01.667Z,41.54
2018-07-27T07:21:01.421Z,42.5
2018-07-27T07:22:01.427Z,43.36
2018-07-27T07:23:01.695Z,44.87
2018-07-27T07:24:01.439Z,45.25
2018-07-27T07:25:01.450Z,46
2018-07-27T07:26:02.824Z,46.88
2018-07-27T07:27:01.766Z,45.9
2018-07-27T07:28:01.487Z,45.12
2018-07-27T07:29:01.485Z,45.25
2018-07-27T07:30:01.744Z,43.9
2018-07-27T07:31:01.751Z,43.24
2018-07-27T07:32:01.756Z,41.7
2018-07-27T07:33:01.780Z,42.3
2018-07-27T07:34:01.778Z,40.86
2018-07-27T07:35:01.787Z,40.48
2018-07-27T07:36:01.792Z,40.31
2018-07-27T07:37:01.802Z,39.43
2018-07-27T07:38:01.810Z,39.06
2018-07-27T07:39:01.819Z,38.28
2018-07-27T07:40:01.574Z,37.9
2018-07-27T07:41:01.828Z,37.63
2018-07-27T07:42:01.838Z,36.96
2018-07-27T07:43:01.589Z,36.29
2018-07-27T07:44:01.864Z,35.91
2018-07-27T07:45:01.975Z,35.72
2018-07-27T07:46:01.713Z,35.05
2018-07-27T07:47:01.891Z,34.95
2018-07-27T07:48:01.640Z,35.34
2018-07-27T07:49:01.901Z,35.93
2018-07-27T07:50:01.911Z,34.77
2018-07-27T07:51:01.798Z,35.55
2018-07-27T07:52:02.001Z,36.24
2018-07-27T07:53:01.938Z,35.06
2018-07-27T07:54:01.968Z,34.77
2018-07-27T07:55:01.971Z,34.78
2018-07-27T07:56:01.983Z,33.91
2018-07-27T07:57:01.720Z,32.65
2018-07-27T07:58:01.991Z,32.26
2018-07-27T07:59:02.004Z,32.38
2018-07-27T08:00:01.750Z,33.64
2018-07-27T08:01:01.832Z,32.74
2018-07-27T08:02:01.777Z,32.74
2018-07-27T08:03:02.047Z,33.7
2018-07-27T08:04:06.168Z,32.9
2018-07-27T08:05:02.073Z,33.87
2018-07-27T08:06:01.854Z,33.97
2018-07-27T08:07:02.078Z,33.49
2018-07-27T08:08:02.096Z,33.39
2018-07-27T08:09:02.088Z,32.53
2018-07-27T08:10:02.098Z,31.74
2018-07-27T08:11:02.116Z,30.68
2018-07-27T08:12:02.144Z,33.03
2018-07-27T08:13:02.130Z,32.33
2018-07-27T08:14:02.140Z,30.76
2018-07-27T08:15:02.165Z,31.07
2018-07-27T08:16:01.969Z,33.54
2018-07-27T08:17:02.176Z,31.48
2018-07-27T08:18:02.185Z,30.51
2018-07-27T08:19:01.938Z,31.32
2018-07-27T08:20:01.943Z,30.65
2018-07-27T08:21:01.956Z,29.09
2018-07-27T08:22:02.227Z,27.72
2018-07-27T08:23:01.983Z,27.03
2018-07-27T08:24:02.247Z,28.41
2018-07-27T08:25:02.257Z,30.19
2018-07-27T08:26:02.417Z,28.11
2018-07-27T08:27:02.021Z,26.43
2018-07-27T08:28:02.285Z,27.23
2018-07-27T08:29:02.053Z,28.21
2018-07-27T08:30:02.315Z,28.41
2018-07-27T08:31:02.338Z,27.72
2018-07-27T08:32:02.337Z,28.59
2018-07-27T08:33:02.108Z,30.04
2018-07-27T08:34:02.093Z,30.11
2018-07-27T08:35:02.109Z,30.11
2018-07-27T08:36:02.375Z,30.1
2018-07-27T08:37:02.386Z,30.19
2018-07-27T08:38:02.396Z,29.8
2018-07-27T08:39:02.532Z,29.61
2018-07-27T08:40:02.166Z,28.74
2018-07-27T08:41:02.174Z,30.72
2018-07-27T08:42:02.178Z,31.6
2018-07-27T08:43:02.440Z,29.24
2018-07-27T08:44:02.455Z,30.54
2018-07-27T08:45:02.477Z,29.17
2018-07-27T08:46:02.477Z,29.78
2018-07-27T08:47:02.486Z,28.59
2018-07-27T08:48:02.504Z,26.72
2018-07-27T08:49:02.512Z,28.11
2018-07-27T08:50:02.526Z,27.23
2018-07-27T08:51:02.554Z,27.34
2018-07-27T08:52:02.544Z,27.72
2018-07-27T08:53:02.556Z,27.52
2018-07-27T08:54:02.564Z,27.7
2018-07-27T08:55:02.318Z,27.41
2018-07-27T08:56:02.355Z,28.19
2018-07-27T08:57:02.342Z,28.09
2018-07-27T08:58:02.349Z,28.08
2018-07-27T08:59:02.633Z,32.79
2018-07-27T09:00:02.639Z,30.49
2018-07-27T09:01:02.454Z,33.53
2018-07-27T09:02:02.658Z,35.75
2018-07-27T09:03:02.668Z,36.13
2018-07-27T09:04:02.960Z,34.93
2018-07-27T09:05:02.692Z,37.76
2018-07-27T09:06:02.440Z,36.27
2018-07-27T09:07:02.446Z,37.13
2018-07-27T09:08:02.484Z,35.85
2018-07-27T09:09:02.488Z,37.02
2018-07-27T09:10:04.347Z,36.9
2018-07-27T09:11:02.835Z,38.86
2018-07-27T09:12:02.512Z,37.59
2018-07-27T09:13:02.778Z,38.78
2018-07-27T09:14:02.788Z,39.37
2018-07-27T09:15:02.818Z,37.88
2018-07-27T09:16:02.795Z,40.03
2018-07-27T09:17:02.809Z,39.72
2018-07-27T09:18:02.839Z,38.94
2018-07-27T09:19:02.562Z,38.94
2018-07-27T09:20:03.370Z,40
2018-07-27T09:21:02.868Z,40.78
2018-07-27T09:22:02.860Z,39.88
2018-07-27T09:23:02.616Z,41.52
2018-07-27T09:24:02.870Z,42.11
2018-07-27T09:25:03.825Z,42.09
2018-07-27T09:26:02.902Z,42.29
2018-07-27T09:27:02.647Z,43.43
2018-07-27T09:28:02.890Z,41.97
2018-07-27T09:29:02.889Z,42.16
2018-07-27T09:30:02.906Z,44.14
2018-07-27T09:31:02.936Z,40.63
2018-07-27T09:32:02.938Z,40.43
2018-07-27T09:33:02.697Z,42.09
2018-07-27T09:34:03.003Z,42.01
2018-07-27T09:35:02.982Z,43.69
2018-07-27T09:36:02.804Z,41.25
2018-07-27T09:37:02.969Z,43.69
2018-07-27T09:38:02.983Z,44.48
2018-07-27T09:39:02.725Z,44.38
2018-07-27T09:40:03.021Z,40.37
2018-07-27T09:41:02.995Z,40.17
2018-07-27T09:42:03.000Z,39.59
2018-07-27T09:43:03.000Z,38.81
2018-07-27T09:44:02.787Z,37.65
2018-07-27T09:45:03.036Z,43.03
2018-07-27T09:46:03.148Z,43.44
2018-07-27T09:47:03.051Z,41.97
2018-07-27T09:48:03.036Z,39.33
2018-07-27T09:49:03.072Z,38.45
2018-07-27T09:50:03.088Z,37.79
2018-07-27T09:51:03.074Z,37.39
2018-07-27T09:52:03.084Z,37.59
2018-07-27T09:53:03.100Z,37.79
2018-07-27T09:54:02.834Z,37
2018-07-27T09:55:03.098Z,36.41
2018-07-27T09:56:02.858Z,36.43
2018-07-27T09:57:03.118Z,36.14
2018-07-27T09:58:03.354Z,37.12
2018-07-27T09:59:02.863Z,36.04
2018-07-27T10:00:03.132Z,35.55
2018-07-27T10:01:02.980Z,34.77
2018-07-27T10:02:02.902Z,34.57
2018-07-27T10:03:02.896Z,34.38
2018-07-27T10:04:03.160Z,33.61
2018-07-27T10:05:03.167Z,33.51
2018-07-27T10:06:03.241Z,33.04
2018-07-27T10:07:03.199Z,33.61
2018-07-27T10:08:03.178Z,32.63
2018-07-27T10:09:03.202Z,33.31
2018-07-27T10:10:03.218Z,33.41
2018-07-27T10:11:03.200Z,34.3
2018-07-27T10:12:03.208Z,34.88
2018-07-27T10:13:03.221Z,35.08
2018-07-27T10:14:03.220Z,35.17
2018-07-27T10:15:03.242Z,34.78
2018-07-27T10:16:03.016Z,34.3
2018-07-27T10:17:03.245Z,33.12
2018-07-27T10:18:03.267Z,36.84
2018-07-27T10:19:03.027Z,35.25
2018-07-27T10:20:03.330Z,36.63
2018-07-27T10:21:03.076Z,35.35
2018-07-27T10:22:03.027Z,35.16
2018-07-27T10:23:03.291Z,33.79
2018-07-27T10:24:03.061Z,34.06
2018-07-27T10:25:03.044Z,33.97
2018-07-27T10:26:03.060Z,36.51
2018-07-27T10:27:03.315Z,37.59
2018-07-27T10:28:03.319Z,36.3
2018-07-27T10:29:03.343Z,36.1
2018-07-27T10:30:03.357Z,35.13
2018-07-27T10:31:03.119Z,35.14
2018-07-27T10:32:03.361Z,34.45
2018-07-27T10:33:03.360Z,34.77
2018-07-27T10:34:03.103Z,33.98
2018-07-27T10:35:03.365Z,34.16
2018-07-27T10:36:03.393Z,35.55
2018-07-27T10:37:03.378Z,35.16
2018-07-27T10:38:03.142Z,34.77
2018-07-27T10:39:03.398Z,34.18
2018-07-27T10:40:03.408Z,33.61
2018-07-27T10:41:03.450Z,35.86
2018-07-27T10:42:03.437Z,35.47
2018-07-27T10:43:03.456Z,34.11
2018-07-27T10:44:03.440Z,33.62
2018-07-27T10:45:03.183Z,33.62
2018-07-27T10:46:03.242Z,33.92
2018-07-27T10:47:03.207Z,34.88
2018-07-27T10:48:03.214Z,34.98
2018-07-27T10:49:03.226Z,34.98
2018-07-27T10:50:03.228Z,35.06
2018-07-27T10:51:03.525Z,33.5
2018-07-27T10:52:03.506Z,33.69
2018-07-27T10:53:03.503Z,34.96
2018-07-27T10:54:03.508Z,35.45
2018-07-27T10:55:03.265Z,34.67
2018-07-27T10:56:03.608Z,35.94
2018-07-27T10:57:03.275Z,34.77
2018-07-27T10:58:03.575Z,35.44
2018-07-27T10:59:03.576Z,33.77
2018-07-27T11:00:03.556Z,33.48
2018-07-27T11:01:03.679Z,33.09
2018-07-27T11:02:03.327Z,35.24
2018-07-27T11:03:03.573Z,35.14
2018-07-27T11:04:03.589Z,35.45
2018-07-27T11:05:03.587Z,34.96
2018-07-27T11:06:03.383Z,34.77
2018-07-27T11:07:03.607Z,34.96
2018-07-27T11:08:03.603Z,33.79
2018-07-27T11:09:03.610Z,35.06
2018-07-27T11:10:03.381Z,33.67
2018-07-27T11:11:03.668Z,34.84
2018-07-27T11:12:03.385Z,34.26
2018-07-27T11:13:03.638Z,36.32
2018-07-27T11:14:03.646Z,34.75
2018-07-27T11:15:03.398Z,35.14
2018-07-27T11:16:03.682Z,34.84
2018-07-27T11:17:03.424Z,35.73
2018-07-27T11:18:03.682Z,36.32
2018-07-27T11:19:03.688Z,35.45
2018-07-27T11:20:03.716Z,33
2018-07-27T11:21:03.704Z,33.5
2018-07-27T11:22:03.702Z,33.59
2018-07-27T11:23:03.707Z,33.79
2018-07-27T11:24:03.489Z,34.18
2018-07-27T11:25:03.729Z,34.45
2018-07-27T11:26:03.539Z,33.97
2018-07-27T11:27:03.745Z,33.38
2018-07-27T11:28:03.512Z,35.91
2018-07-27T11:29:03.761Z,35.22
2018-07-27T11:30:03.767Z,36.4
2018-07-27T11:31:03.654Z,35.22
2018-07-27T11:32:03.816Z,32.4
2018-07-27T11:33:03.793Z,32.2
2018-07-27T11:34:03.795Z,34.55
2018-07-27T11:35:03.559Z,33.5
2018-07-27T11:36:03.893Z,32.9
2018-07-27T11:37:03.966Z,32.53
2018-07-27T11:38:03.831Z,32.12
2018-07-27T11:39:03.854Z,32.42
2018-07-27T11:40:03.579Z,33.5
2018-07-27T11:41:03.635Z,34.86
2018-07-27T11:42:03.848Z,33.98
2018-07-27T11:43:03.858Z,32.51
2018-07-27T11:44:03.870Z,32.22
2018-07-27T11:45:03.884Z,32.51
2018-07-27T11:46:03.735Z,31.34
2018-07-27T11:47:03.894Z,31.24
2018-07-27T11:48:03.644Z,31.04
2018-07-27T11:49:03.900Z,31.24
2018-07-27T11:50:03.648Z,32.81
2018-07-27T11:51:04.055Z,33.39
2018-07-27T11:52:03.667Z,32.22
2018-07-27T11:53:03.938Z,31.14
2018-07-27T11:54:03.683Z,32.42
2018-07-27T11:55:03.984Z,34.06
2018-07-27T11:56:03.984Z,33.77
2018-07-27T11:57:03.711Z,35.53
2018-07-27T11:58:03.711Z,35.06
2018-07-27T11:59:03.716Z,33.41
2018-07-27T12:00:03.989Z,31.35
2018-07-27T12:01:03.770Z,32.35
2018-07-27T12:02:03.738Z,30.98
2018-07-27T12:03:04.027Z,31.09
2018-07-27T12:04:03.751Z,34.25
2018-07-27T12:05:04.013Z,33.17
2018-07-27T12:06:06.943Z,31.3
2018-07-27T12:07:04.120Z,31.32
2018-07-27T12:08:03.778Z,31.9
2018-07-27T12:09:03.791Z,32.5
2018-07-27T12:10:04.071Z,31.02
2018-07-27T12:11:04.099Z,30.53
2018-07-27T12:12:04.074Z,30.42
2018-07-27T12:13:04.078Z,31.1
2018-07-27T12:14:04.418Z,30.4
2018-07-27T12:15:04.180Z,34.23
2018-07-27T12:16:04.110Z,33.56
2018-07-27T12:17:04.106Z,33.36
2018-07-27T12:18:03.858Z,32.2
2018-07-27T12:19:03.861Z,31.3
2018-07-27T12:20:03.884Z,31.7
2018-07-27T12:21:04.055Z,31.89
2018-07-27T12:22:03.886Z,32.66
2018-07-27T12:23:03.896Z,32.86
2018-07-27T12:24:03.913Z,33.14
2018-07-27T12:25:04.176Z,33.92
2018-07-27T12:26:03.920Z,33.43
2018-07-27T12:27:03.988Z,32.63
2018-07-27T12:28:04.192Z,34.2
2018-07-27T12:29:03.945Z,32.43
2018-07-27T12:30:03.950Z,33.39
2018-07-27T12:31:04.251Z,33.89
2018-07-27T12:32:03.959Z,33.12
2018-07-27T12:33:03.975Z,34.3
2018-07-27T12:34:03.980Z,33.41
2018-07-27T12:35:04.242Z,34.59
2018-07-27T12:36:04.028Z,35.08
2018-07-27T12:37:04.257Z,34
2018-07-27T12:38:04.260Z,32.32
2018-07-27T12:39:04.419Z,33.02
2018-07-27T12:40:04.287Z,35.45
2018-07-27T12:41:04.113Z,36.24
2018-07-27T12:42:04.044Z,36.61
2018-07-27T12:43:04.045Z,36.69
2018-07-27T12:44:04.317Z,36.49
2018-07-27T12:45:04.466Z,37.96
2018-07-27T12:46:04.403Z,37.96
2018-07-27T12:47:04.337Z,37.47
2018-07-27T12:48:04.365Z,36.4
2018-07-27T12:49:04.346Z,35.13
2018-07-27T12:50:04.362Z,35.24
2018-07-27T12:51:04.411Z,36.12
2018-07-27T12:52:04.453Z,37.41
2018-07-27T12:53:04.122Z,36.51
2018-07-27T12:54:04.121Z,35.94
2018-07-27T12:55:04.404Z,34.77
2018-07-27T12:56:04.175Z,35.94